Time;durP1;ratioP1;P1;durP2;ratioP2;P2;SDS_P1;SDS_P2;PMS_P1;PMS_P2;Temp;Humidity;BMP_temperature;BMP_pressure;BME280_temperature;BME280_humidity;BME280_pressure;Samples;Min_cycle;Max_cycle;Signal;HPM_P1;HPM_P2
2023/09/15 00:00:33;;;;;;;4.18;1.85;;;16.70;71.60;;;;;;5037872;28;20049;-69
2023/09/15 00:02:58;;;;;;;4.18;1.70;;;16.70;71.60;;;;;;5040821;28;20058;-68
2023/09/15 00:05:29;;;;;;;1.48;1.38;;;16.70;71.70;;;;;;5031344;28;20109;-68
2023/09/15 00:07:58;;;;;;;1.85;1.17;;;16.70;71.70;;;;;;5029023;28;20472;-69
2023/09/15 00:10:23;;;;;;;3.70;1.67;;;16.60;71.70;;;;;;5051618;28;20182;-69
2023/09/15 00:12:49;;;;;;;2.03;1.55;;;16.60;71.80;;;;;;5035031;28;20476;-69
2023/09/15 00:15:15;;;;;;;1.77;1.50;;;16.60;71.90;;;;;;5034995;28;20029;-69
2023/09/15 00:17:43;;;;;;;1.83;1.20;;;16.50;71.90;;;;;;5035938;28;20488;-68
2023/09/15 00:20:13;;;;;;;1.20;1.08;;;16.50;71.90;;;;;;5032495;28;20026;-68
2023/09/15 00:22:52;;;;;;;1.20;1.10;;;16.50;71.90;;;;;;5028805;28;20033;-69
2023/09/15 00:25:21;;;;;;;3.03;1.20;;;16.50;72.00;;;;;;5036619;28;20041;-69
2023/09/15 00:27:56;;;;;;;3.50;1.15;;;16.50;72.00;;;;;;5042508;28;20044;-69
2023/09/15 00:30:23;;;;;;;2.72;1.60;;;16.40;71.90;;;;;;5046740;28;20051;-69
2023/09/15 00:32:49;;;;;;;1.33;1.23;;;16.40;72.10;;;;;;5046058;28;20040;-69
2023/09/15 00:35:17;;;;;;;1.88;1.25;;;16.40;72.30;;;;;;5046135;28;20830;-69
2023/09/15 00:37:43;;;;;;;1.08;0.95;;;16.40;72.20;;;;;;5044110;28;20021;-69
2023/09/15 00:40:10;;;;;;;2.17;1.40;;;16.30;72.10;;;;;;5044971;28;20021;-69
2023/09/15 00:42:37;;;;;;;1.77;1.35;;;16.30;72.10;;;;;;5038429;28;20052;-68
2023/09/15 00:45:06;;;;;;;4.28;1.13;;;16.30;72.20;;;;;;5039382;28;20013;-69
2023/09/15 00:47:34;;;;;;;1.50;1.40;;;16.30;72.40;;;;;;5044926;28;20064;-69
2023/09/15 00:50:05;;;;;;;1.40;1.30;;;16.20;72.30;;;;;;5045291;28;20028;-68
2023/09/15 00:52:33;;;;;;;1.73;1.13;;;16.20;72.30;;;;;;5044656;28;20039;-69
2023/09/15 00:55:00;;;;;;;2.00;1.55;;;16.20;72.40;;;;;;5044170;28;20025;-68
2023/09/15 00:57:26;;;;;;;1.10;1.00;;;16.20;72.30;;;;;;5043959;28;20109;-69
2023/09/15 00:59:53;;;;;;;2.40;1.75;;;16.10;72.30;;;;;;5047338;28;20091;-68
2023/09/15 01:02:20;;;;;;;1.40;1.10;;;16.10;72.40;;;;;;5046816;28;20037;-68
2023/09/15 01:04:46;;;;;;;1.50;1.08;;;16.10;72.40;;;;;;5048808;28;20021;-69
2023/09/15 01:07:13;;;;;;;1.48;0.98;;;16.10;72.50;;;;;;5044662;28;20460;-68
2023/09/15 01:09:39;;;;;;;0.88;0.88;;;16.10;72.40;;;;;;5040870;28;20080;-69
2023/09/15 01:12:07;;;;;;;1.42;1.13;;;16.00;72.40;;;;;;5046558;28;20025;-69
2023/09/15 01:14:34;;;;;;;1.60;1.20;;;16.00;72.40;;;;;;5046017;28;20021;-68
2023/09/15 01:17:16;;;;;;;2.15;1.20;;;16.00;72.50;;;;;;5045689;28;21035;-68
2023/09/15 01:20:13;;;;;;;1.60;0.93;;;16.00;72.50;;;;;;5043894;28;20021;-68
2023/09/15 01:23:00;;;;;;;1.83;1.13;;;15.90;72.50;;;;;;5048969;28;20037;-69
2023/09/15 01:25:44;;;;;;;1.55;1.30;;;15.90;72.60;;;;;;5053975;28;20489;-68
2023/09/15 01:28:44;;;;;;;1.38;0.70;;;15.90;72.60;;;;;;5036986;28;20029;-69
2023/09/15 01:31:11;;;;;;;1.67;1.25;;;15.90;72.70;;;;;;5038513;28;20104;-69
2023/09/15 01:33:38;;;;;;;1.52;1.42;;;15.80;72.70;;;;;;5035016;28;20112;-68
2023/09/15 01:36:04;;;;;;;1.45;1.27;;;15.80;72.80;;;;;;5031564;28;20036;-69
2023/09/15 01:38:31;;;;;;;1.45;0.93;;;15.80;72.90;;;;;;5028417;28;20488;-69
2023/09/15 01:40:57;;;;;;;2.72;1.33;;;15.80;73.00;;;;;;5031802;28;20025;-69
2023/09/15 01:43:22;;;;;;;3.15;1.30;;;15.80;73.00;;;;;;5033182;28;20481;-69
2023/09/15 01:45:48;;;;;;;1.67;1.10;;;15.80;72.90;;;;;;5031159;28;20063;-69
2023/09/15 01:48:15;;;;;;;1.10;1.00;;;15.80;72.80;;;;;;5028269;28;20029;-68
2023/09/15 01:50:42;;;;;;;3.13;1.60;;;15.70;72.90;;;;;;5031663;28;20032;-68
2023/09/15 01:53:08;;;;;;;2.47;1.17;;;15.70;72.90;;;;;;5027081;28;20129;-69
2023/09/15 01:55:34;;;;;;;1.75;1.20;;;15.70;72.90;;;;;;5033081;28;20094;-69
2023/09/15 01:58:00;;;;;;;1.85;1.20;;;15.70;72.90;;;;;;5029794;28;20032;-69
2023/09/15 02:00:36;;;;;;;2.53;1.35;;;15.70;73.00;;;;;;5030507;28;20021;-69
2023/09/15 02:03:02;;;;;;;1.98;0.82;;;15.70;73.00;;;;;;5037138;28;20041;-69
2023/09/15 02:05:28;;;;;;;1.02;0.82;;;15.70;73.00;;;;;;5033930;28;20045;-69
2023/09/15 02:07:53;;;;;;;1.65;0.90;;;15.60;72.90;;;;;;5025362;28;20025;-69
2023/09/15 02:10:19;;;;;;;1.05;1.00;;;15.60;73.00;;;;;;5035558;28;20078;-69
2023/09/15 02:12:44;;;;;;;1.38;0.90;;;15.60;73.00;;;;;;5034400;28;20060;-68
2023/09/15 02:15:11;;;;;;;1.65;1.23;;;15.60;73.10;;;;;;5032012;28;20022;-68
2023/09/15 02:17:38;;;;;;;1.83;1.27;;;15.50;73.00;;;;;;5035467;28;20020;-69
2023/09/15 02:20:16;;;;;;;1.15;1.00;;;15.60;73.10;;;;;;5030754;28;20030;-69
2023/09/15 02:22:42;;;;;;;1.80;1.27;;;15.50;73.00;;;;;;5030241;28;20021;-69
2023/09/15 02:25:11;;;;;;;1.92;0.93;;;15.50;73.10;;;;;;5045071;28;20056;-69
2023/09/15 02:27:38;;;;;;;1.10;0.77;;;15.50;73.00;;;;;;5064446;28;20041;-69
2023/09/15 02:30:07;;;;;;;1.38;1.25;;;15.40;73.00;;;;;;5066383;28;20425;-69
2023/09/15 02:32:33;;;;;;;1.70;1.08;;;15.40;73.10;;;;;;5064789;28;20037;-69
2023/09/15 02:34:59;;;;;;;1.38;0.93;;;15.40;73.20;;;;;;5066017;28;20108;-69
2023/09/15 02:37:24;;;;;;;1.75;1.17;;;15.40;73.10;;;;;;5037656;28;20158;-68
2023/09/15 02:39:50;;;;;;;1.33;1.20;;;15.40;73.20;;;;;;5068806;28;20559;-69
2023/09/15 02:42:16;;;;;;;1.40;1.08;;;15.40;73.20;;;;;;5064535;28;20024;-69
2023/09/15 02:44:45;;;;;;;1.92;0.82;;;15.40;73.20;;;;;;5067016;28;20033;-69
2023/09/15 02:47:10;;;;;;;1.67;0.85;;;15.30;73.10;;;;;;5063844;28;20032;-69
2023/09/15 02:49:36;;;;;;;1.30;0.98;;;15.30;73.10;;;;;;5065135;28;20024;-69
2023/09/15 02:52:04;;;;;;;10.23;1.10;;;15.30;73.30;;;;;;5060752;28;20045;-69
2023/09/15 02:54:30;;;;;;;0.73;0.70;;;15.30;73.40;;;;;;5065932;28;20017;-68
2023/09/15 02:56:56;;;;;;;2.10;1.25;;;15.30;73.40;;;;;;5063869;28;20562;-69
2023/09/15 02:59:21;;;;;;;2.08;1.55;;;15.30;73.40;;;;;;5066134;28;20376;-69
2023/09/15 03:01:47;;;;;;;2.17;1.08;;;15.20;73.30;;;;;;5036451;28;20100;-69
2023/09/15 03:04:13;;;;;;;2.80;1.40;;;15.30;73.40;;;;;;5061522;28;20090;-68
2023/09/15 03:06:39;;;;;;;1.48;1.15;;;15.20;73.40;;;;;;5059078;28;20033;-69
2023/09/15 03:09:08;;;;;;;2.15;1.10;;;15.20;73.40;;;;;;5056025;28;20544;-69
2023/09/15 03:11:34;;;;;;;2.53;1.38;;;15.20;73.50;;;;;;5065099;28;20548;-68
2023/09/15 03:13:59;;;;;;;2.53;1.30;;;15.10;73.40;;;;;;5067632;28;20025;-68
2023/09/15 03:16:26;;;;;;;1.25;0.95;;;15.20;73.50;;;;;;5065402;28;20480;-68
2023/09/15 03:18:51;;;;;;;1.58;1.45;;;15.10;73.40;;;;;;5070478;28;20476;-68
2023/09/15 03:21:17;;;;;;;2.42;1.27;;;15.10;73.40;;;;;;5070975;28;20071;-69
2023/09/15 03:23:43;;;;;;;1.05;0.88;;;15.10;73.50;;;;;;5070547;28;20115;-69
2023/09/15 03:26:09;;;;;;;2.05;1.42;;;15.10;73.50;;;;;;5069557;28;20549;-69
2023/09/15 03:28:36;;;;;;;3.13;1.38;;;15.00;73.40;;;;;;5070041;28;20032;-69
2023/09/15 03:31:03;;;;;;;2.03;1.38;;;15.00;73.50;;;;;;5069671;28;20081;-69
2023/09/15 03:33:32;;;;;;;1.52;1.25;;;15.00;73.50;;;;;;5069550;28;20044;-68
2023/09/15 03:35:59;;;;;;;2.58;0.90;;;15.00;73.60;;;;;;5047104;28;20025;-69
2023/09/15 03:38:25;;;;;;;2.17;1.13;;;15.00;73.60;;;;;;5066935;28;20461;-69
2023/09/15 03:40:51;;;;;;;1.17;0.80;;;14.90;73.60;;;;;;5045917;28;20104;-68
2023/09/15 03:43:16;;;;;;;1.05;0.80;;;14.90;73.70;;;;;;5071036;28;20451;-68
2023/09/15 03:45:47;;;;;;;2.70;1.10;;;14.90;73.80;;;;;;5062932;28;20054;-69
2023/09/15 03:48:13;;;;;;;1.25;1.15;;;14.90;73.70;;;;;;5061383;28;20028;-69
2023/09/15 03:50:39;;;;;;;1.38;1.00;;;14.90;73.70;;;;;;5063016;28;20029;-69
2023/09/15 03:53:04;;;;;;;1.40;0.90;;;14.90;73.80;;;;;;5057990;28;20442;-69
2023/09/15 03:55:30;;;;;;;2.22;1.10;;;14.90;73.80;;;;;;5066638;28;20025;-69
2023/09/15 03:57:56;;;;;;;1.35;1.05;;;14.90;73.70;;;;;;5050772;28;20376;-69
2023/09/15 04:00:22;;;;;;;1.17;0.93;;;14.90;73.70;;;;;;5071147;28;20031;-69
2023/09/15 04:02:48;;;;;;;0.98;0.80;;;14.90;73.70;;;;;;5066744;28;20036;-68
2023/09/15 04:05:15;;;;;;;1.23;0.95;;;14.80;73.60;;;;;;5064910;28;20074;-69
2023/09/15 04:07:41;;;;;;;1.25;1.13;;;14.80;73.70;;;;;;5067941;28;20028;-69
2023/09/15 04:10:08;;;;;;;1.60;1.10;;;14.80;73.80;;;;;;5051773;28;20121;-69
2023/09/15 04:12:37;;;;;;;0.50;0.50;;;14.80;73.80;;;;;;5064293;28;20029;-69
2023/09/15 04:15:04;;;;;;;3.15;1.10;;;14.70;73.80;;;;;;5053359;28;20131;-69
2023/09/15 04:17:30;;;;;;;1.33;0.77;;;14.70;73.80;;;;;;5067759;28;20055;-69
2023/09/15 04:19:58;;;;;;;1.27;0.82;;;14.70;73.80;;;;;;5057850;28;20042;-69
2023/09/15 04:22:25;;;;;;;2.08;0.82;;;14.70;74.00;;;;;;5058926;28;20496;-69
2023/09/15 04:24:50;;;;;;;1.48;1.10;;;14.60;74.00;;;;;;5056512;28;20044;-69
2023/09/15 04:27:16;;;;;;;1.88;1.17;;;14.60;74.10;;;;;;5059098;28;20374;-69
2023/09/15 04:29:54;;;;;;;1.98;0.90;;;14.60;74.00;;;;;;5055800;28;20082;-69
2023/09/15 04:32:19;;;;;;;1.58;1.13;;;14.60;73.90;;;;;;5041866;28;20032;-69
2023/09/15 04:34:45;;;;;;;2.08;1.20;;;14.60;74.00;;;;;;5061754;28;20396;-69
2023/09/15 04:37:11;;;;;;;1.30;1.20;;;14.50;73.90;;;;;;5045836;28;20032;-69
2023/09/15 04:39:36;;;;;;;0.95;0.70;;;14.50;73.90;;;;;;5052627;28;20031;-68
2023/09/15 04:42:02;;;;;;;1.00;0.77;;;14.50;73.90;;;;;;5039542;28;20024;-69
2023/09/15 04:44:28;;;;;;;5.20;1.63;;;14.50;74.00;;;;;;5059817;28;20135;-69
2023/09/15 04:46:53;;;;;;;0.98;0.88;;;14.50;74.10;;;;;;5057997;28;20059;-69
2023/09/15 04:49:19;;;;;;;1.52;1.10;;;14.40;74.00;;;;;;5061712;28;20036;-69
2023/09/15 04:51:45;;;;;;;1.10;0.98;;;14.50;74.10;;;;;;5060385;28;20038;-69
2023/09/15 04:54:10;;;;;;;3.55;1.52;;;14.50;74.10;;;;;;5059045;28;20051;-69
2023/09/15 04:56:36;;;;;;;1.30;0.65;;;14.40;74.20;;;;;;5064403;28;20043;-69
2023/09/15 04:59:02;;;;;;;2.08;1.10;;;14.40;74.20;;;;;;5064580;28;20029;-69
2023/09/15 05:01:27;;;;;;;1.77;1.13;;;14.40;74.30;;;;;;5064980;28;20025;-69
2023/09/15 05:03:53;;;;;;;1.00;0.90;;;14.40;74.30;;;;;;5042538;28;20028;-69
2023/09/15 05:06:19;;;;;;;1.58;1.23;;;14.40;74.30;;;;;;5054375;28;20028;-69
2023/09/15 05:08:45;;;;;;;1.35;0.88;;;14.40;74.30;;;;;;5051563;28;20401;-68
2023/09/15 05:11:11;;;;;;;0.95;0.80;;;14.40;74.30;;;;;;5061015;28;20445;-69
2023/09/15 05:13:36;;;;;;;1.00;0.75;;;14.40;74.40;;;;;;5026940;28;20037;-69
2023/09/15 05:16:03;;;;;;;1.85;1.63;;;14.40;74.40;;;;;;5055567;28;20037;-69
2023/09/15 05:18:30;;;;;;;1.55;1.27;;;14.40;74.40;;;;;;5062733;28;20441;-69
2023/09/15 05:20:56;;;;;;;2.20;1.20;;;14.30;74.40;;;;;;5053146;28;20377;-69
2023/09/15 05:23:22;;;;;;;1.52;0.98;;;14.30;74.40;;;;;;5039183;28;20473;-69
2023/09/15 05:25:51;;;;;;;2.08;1.17;;;14.40;74.40;;;;;;5060399;28;20136;-69
2023/09/15 05:28:18;;;;;;;1.08;0.93;;;14.40;74.40;;;;;;5059300;28;20060;-69
2023/09/15 05:30:44;;;;;;;1.15;0.90;;;14.40;74.40;;;;;;5057609;28;20044;-69
2023/09/15 05:33:10;;;;;;;1.23;0.93;;;14.40;74.60;;;;;;5042354;28;20032;-69
2023/09/15 05:35:36;;;;;;;4.88;0.95;;;14.40;74.60;;;;;;5045055;28;20059;-70
2023/09/15 05:38:02;;;;;;;1.50;1.00;;;14.40;74.70;;;;;;5056346;28;20120;-69
2023/09/15 05:40:28;;;;;;;4.13;1.25;;;14.50;74.90;;;;;;5046762;28;20025;-68
2023/09/15 05:42:54;;;;;;;5.10;2.03;;;14.50;74.90;;;;;;5038830;28;20056;-69
2023/09/15 05:45:20;;;;;;;2.65;1.27;;;14.50;74.90;;;;;;5059613;28;20483;-69
2023/09/15 05:47:46;;;;;;;2.47;1.70;;;14.50;74.80;;;;;;5061882;28;20031;-68
2023/09/15 05:50:12;;;;;;;2.83;1.20;;;14.60;74.90;;;;;;5057649;28;20124;-68
2023/09/15 05:52:37;;;;;;;2.63;1.20;;;14.60;74.90;;;;;;5029216;28;20033;-69
2023/09/15 05:55:04;;;;;;;3.05;1.63;;;14.70;74.90;;;;;;5061374;28;20029;-69
2023/09/15 05:57:30;;;;;;;3.63;1.33;;;14.70;75.00;;;;;;5040017;28;20930;-68
2023/09/15 05:59:56;;;;;;;3.22;1.10;;;14.80;75.00;;;;;;5055059;28;20027;-68
2023/09/15 06:02:22;;;;;;;6.13;2.20;;;14.80;75.00;;;;;;5053859;28;20021;-69
2023/09/15 06:04:49;;;;;;;1.67;1.33;;;14.80;75.10;;;;;;5059328;28;20017;-69
2023/09/15 06:07:15;;;;;;;4.40;1.48;;;14.90;75.10;;;;;;5054808;28;20021;-69
2023/09/15 06:09:41;;;;;;;1.88;1.63;;;14.90;75.20;;;;;;5043177;28;20468;-69
2023/09/15 06:12:06;;;;;;;2.25;1.63;;;15.00;75.20;;;;;;5054100;28;20029;-70
2023/09/15 06:14:35;;;;;;;1.67;1.20;;;15.00;75.20;;;;;;5052454;28;20036;-70
2023/09/15 06:17:02;;;;;;;2.72;1.77;;;15.10;75.30;;;;;;5062018;28;20438;-69
2023/09/15 06:19:28;;;;;;;4.28;1.58;;;15.10;75.30;;;;;;5062853;28;20021;-69
2023/09/15 06:21:54;;;;;;;2.05;1.27;;;15.10;75.30;;;;;;5060482;28;20432;-69
2023/09/15 06:24:20;;;;;;;3.38;1.50;;;15.20;75.30;;;;;;5047277;28;20041;-69
2023/09/15 06:26:47;;;;;;;3.20;1.42;;;15.20;75.40;;;;;;5054807;28;20045;-69
2023/09/15 06:29:15;;;;;;;3.33;1.60;;;15.30;75.50;;;;;;5056911;28;20055;-69
2023/09/15 06:31:41;;;;;;;2.00;1.33;;;15.30;75.50;;;;;;5059486;28;20033;-69
2023/09/15 06:34:07;;;;;;;2.65;1.95;;;15.40;75.50;;;;;;5062507;28;20025;-69
2023/09/15 06:36:33;;;;;;;2.00;1.27;;;15.40;75.50;;;;;;5064197;28;20112;-69
2023/09/15 06:38:59;;;;;;;2.03;1.85;;;15.50;75.60;;;;;;5062741;28;20116;-69
2023/09/15 06:41:25;;;;;;;2.65;1.20;;;15.50;75.60;;;;;;5060936;28;20029;-68
2023/09/15 06:43:50;;;;;;;3.63;1.80;;;15.60;75.60;;;;;;5062014;28;20032;-68
2023/09/15 06:46:21;;;;;;;1.95;1.35;;;15.70;75.60;;;;;;5041884;28;20059;-69
2023/09/15 06:48:48;;;;;;;2.53;1.50;;;15.70;75.40;;;;;;5067635;28;20627;-69
2023/09/15 06:51:13;;;;;;;1.75;1.38;;;15.80;75.40;;;;;;5067705;28;20040;-68
2023/09/15 06:53:39;;;;;;;2.67;1.80;;;15.80;75.30;;;;;;5066312;28;20038;-69
2023/09/15 06:56:05;;;;;;;3.55;1.95;;;15.90;75.40;;;;;;5064388;28;20096;-69
2023/09/15 06:58:30;;;;;;;2.97;1.30;;;16.00;75.40;;;;;;5066032;28;20082;-69
2023/09/15 07:00:56;;;;;;;1.55;1.30;;;16.00;75.20;;;;;;5049370;28;20395;-69
2023/09/15 07:03:23;;;;;;;2.75;1.67;;;16.10;75.10;;;;;;5068264;28;20028;-69
2023/09/15 07:05:50;;;;;;;3.35;2.10;;;16.20;75.10;;;;;;5059474;28;20024;-69
2023/09/15 07:08:16;;;;;;;1.48;1.10;;;16.20;75.10;;;;;;5043182;28;20068;-68
2023/09/15 07:10:41;;;;;;;2.78;1.48;;;16.30;75.00;;;;;;5057082;28;20072;-69
2023/09/15 07:13:07;;;;;;;2.88;1.67;;;16.40;75.00;;;;;;5064897;28;20044;-69
2023/09/15 07:15:35;;;;;;;2.53;1.52;;;16.40;74.90;;;;;;5057322;28;20032;-68
2023/09/15 07:18:04;;;;;;;3.38;1.55;;;16.50;74.80;;;;;;5065435;28;20036;-69
2023/09/15 07:20:30;;;;;;;1.42;1.17;;;16.60;74.80;;;;;;5040085;28;20024;-69
2023/09/15 07:22:56;;;;;;;2.75;1.80;;;16.60;74.60;;;;;;5063263;28;20029;-68
2023/09/15 07:25:23;;;;;;;1.90;1.30;;;16.70;74.60;;;;;;5029357;28;20055;-69
2023/09/15 07:27:50;;;;;;;1.98;1.30;;;16.70;74.50;;;;;;5066350;28;20093;-69
2023/09/15 07:30:16;;;;;;;3.78;1.65;;;16.80;74.30;;;;;;5060651;28;20392;-69
2023/09/15 07:32:42;;;;;;;2.58;1.00;;;16.90;74.20;;;;;;5065356;28;20120;-69
2023/09/15 07:35:12;;;;;;;2.92;1.60;;;17.00;74.10;;;;;;5064571;28;20094;-69
2023/09/15 07:37:38;;;;;;;3.88;1.50;;;17.00;73.90;;;;;;5057385;28;20037;-69
2023/09/15 07:40:07;;;;;;;3.08;0.95;;;17.10;73.90;;;;;;5066861;28;20024;-68
2023/09/15 07:42:33;;;;;;;1.73;1.30;;;17.10;73.70;;;;;;5064938;28;20052;-70
2023/09/15 07:44:59;;;;;;;1.95;0.82;;;17.20;73.60;;;;;;5045167;28;20025;-68
2023/09/15 07:47:25;;;;;;;2.60;1.65;;;17.20;73.60;;;;;;5064527;28;20383;-69
2023/09/15 07:49:51;;;;;;;1.40;1.30;;;17.20;73.80;;;;;;5064508;28;20036;-69
2023/09/15 07:52:18;;;;;;;1.50;1.02;;;17.30;73.70;;;;;;5066690;28;20029;-69
2023/09/15 07:54:45;;;;;;;2.55;1.15;;;17.40;73.50;;;;;;5049115;28;20028;-68
2023/09/15 07:57:11;;;;;;;3.05;1.08;;;17.50;73.30;;;;;;5068206;28;20053;-68
2023/09/15 07:59:36;;;;;;;0.90;0.82;;;17.50;73.10;;;;;;5068650;28;20099;-68
2023/09/15 08:02:05;;;;;;;1.60;1.20;;;17.60;73.00;;;;;;5067415;28;20047;-68
2023/09/15 08:04:31;;;;;;;2.95;1.52;;;17.70;72.80;;;;;;5065365;28;20037;-69
2023/09/15 08:06:57;;;;;;;1.98;1.10;;;17.80;72.70;;;;;;5065629;28;20047;-69
2023/09/15 08:09:23;;;;;;;3.80;1.30;;;17.80;72.50;;;;;;5069990;28;20029;-67
2023/09/15 08:11:49;;;;;;;1.65;1.33;;;17.90;72.40;;;;;;5050994;28;20059;-68
2023/09/15 08:14:15;;;;;;;4.75;1.95;;;17.90;72.40;;;;;;5048023;28;20315;-67
2023/09/15 08:16:40;;;;;;;1.52;1.20;;;18.00;72.30;;;;;;5060432;28;20441;-68
2023/09/15 08:19:07;;;;;;;5.63;2.13;;;18.10;72.30;;;;;;5043924;28;20459;-68
2023/09/15 08:21:32;;;;;;;2.50;1.35;;;18.20;72.10;;;;;;5066747;28;20028;-68
2023/09/15 08:23:58;;;;;;;8.73;1.83;;;18.30;71.90;;;;;;5060480;28;20037;-68
2023/09/15 08:26:25;;;;;;;4.05;1.00;;;18.30;71.50;;;;;;5064816;28;20044;-69
2023/09/15 08:28:51;;;;;;;2.10;1.13;;;18.40;71.40;;;;;;5061688;28;20025;-69
2023/09/15 08:31:17;;;;;;;7.47;2.40;;;18.50;71.30;;;;;;5068385;28;20539;-68
2023/09/15 08:33:42;;;;;;;1.80;1.08;;;18.60;71.00;;;;;;5050608;28;20040;-69
2023/09/15 08:36:08;;;;;;;1.85;1.17;;;18.70;70.80;;;;;;5062372;28;20025;-69
2023/09/15 08:38:34;;;;;;;1.50;1.15;;;18.80;70.70;;;;;;5066801;28;20028;-69
2023/09/15 08:41:05;;;;;;;1.73;1.10;;;18.80;70.60;;;;;;5067689;28;20032;-68
2023/09/15 08:43:32;;;;;;;3.63;1.25;;;18.80;70.50;;;;;;5067664;28;20038;-69
2023/09/15 08:45:59;;;;;;;2.42;1.13;;;18.80;70.60;;;;;;5063683;28;20083;-68
2023/09/15 08:48:29;;;;;;;1.65;1.00;;;18.80;70.50;;;;;;5062414;28;20060;-69
2023/09/15 08:50:58;;;;;;;1.58;1.02;;;18.90;70.50;;;;;;5049627;28;20021;-69
2023/09/15 08:53:24;;;;;;;1.70;1.10;;;19.10;70.40;;;;;;5068352;28;20028;-69
2023/09/15 08:55:51;;;;;;;1.73;1.30;;;19.10;70.10;;;;;;5061208;28;20060;-68
2023/09/15 08:58:17;;;;;;;2.60;0.93;;;19.20;70.00;;;;;;5065997;28;20021;-69
2023/09/15 09:00:44;;;;;;;0.95;0.85;;;19.30;69.90;;;;;;5063320;28;20392;-69
2023/09/15 09:03:12;;;;;;;1.98;1.30;;;19.50;69.80;;;;;;5064309;28;20426;-68
2023/09/15 09:05:40;;;;;;;2.08;1.13;;;19.60;69.60;;;;;;5061521;28;20028;-69
2023/09/15 09:08:08;;;;;;;4.18;1.05;;;19.70;69.50;;;;;;5061667;28;20032;-68
2023/09/15 09:10:34;;;;;;;2.22;0.73;;;19.80;69.30;;;;;;5065576;28;20051;-69
2023/09/15 09:12:59;;;;;;;1.90;0.70;;;19.90;69.20;;;;;;5046753;28;20032;-68
2023/09/15 09:15:27;;;;;;;0.90;0.90;;;20.00;69.10;;;;;;5068086;28;20040;-68
2023/09/15 09:17:53;;;;;;;1.00;0.80;;;20.10;68.90;;;;;;5063552;28;20048;-69
2023/09/15 09:20:26;;;;;;;1.25;0.60;;;20.20;68.70;;;;;;5064554;28;20040;-69
2023/09/15 09:22:52;;;;;;;1.20;0.77;;;20.30;68.60;;;;;;5066885;28;20033;-69
2023/09/15 09:25:28;;;;;;;1.45;0.98;;;20.40;68.40;;;;;;5066393;28;20119;-68
2023/09/15 09:27:55;;;;;;;1.48;1.10;;;20.50;68.10;;;;;;5065315;28;20403;-69
2023/09/15 09:30:23;;;;;;;2.10;1.60;;;20.60;67.60;;;;;;5067861;28;20028;-69
2023/09/15 09:32:49;;;;;;;1.52;0.93;;;20.70;67.60;;;;;;5067051;28;20602;-68
2023/09/15 09:35:15;;;;;;;2.38;1.40;;;20.80;67.30;;;;;;5067124;28;20174;-69
2023/09/15 09:37:41;;;;;;;2.22;1.00;;;20.90;66.70;;;;;;5067239;28;20028;-68
2023/09/15 09:40:07;;;;;;;1.55;0.75;;;21.10;66.80;;;;;;5066368;28;20021;-68
2023/09/15 09:42:36;;;;;;;1.13;0.90;;;21.20;66.60;;;;;;5047936;28;20025;-69
2023/09/15 09:45:03;;;;;;;1.27;1.10;;;21.40;66.20;;;;;;5063400;28;20028;-69
2023/09/15 09:47:29;;;;;;;1.23;1.13;;;21.50;65.60;;;;;;5065704;28;20178;-69
2023/09/15 09:49:55;;;;;;;1.17;0.77;;;21.60;65.30;;;;;;5053319;28;20020;-70
2023/09/15 09:52:22;;;;;;;1.38;1.27;;;21.80;65.10;;;;;;5060376;28;20498;-69
2023/09/15 09:54:51;;;;;;;1.90;0.80;;;21.90;64.80;;;;;;5061794;28;20074;-70
2023/09/15 09:57:16;;;;;;;2.05;1.10;;;22.00;64.60;;;;;;5063031;28;20094;-68
2023/09/15 09:59:44;;;;;;;1.75;1.08;;;22.00;64.30;;;;;;5059888;28;20095;-69
2023/09/15 10:02:11;;;;;;;3.17;1.30;;;22.20;63.90;;;;;;5064234;28;20587;-67
2023/09/15 10:04:37;;;;;;;4.63;1.50;;;22.30;63.50;;;;;;5065364;28;20029;-67
2023/09/15 10:07:04;;;;;;;1.13;0.90;;;22.30;63.00;;;;;;5066577;28;20033;-67
2023/09/15 10:09:31;;;;;;;0.88;0.82;;;22.40;62.30;;;;;;5062216;28;20028;-69
2023/09/15 10:11:57;;;;;;;8.27;1.42;;;22.50;62.00;;;;;;5062622;28;20028;-67
2023/09/15 10:14:25;;;;;;;0.52;0.52;;;22.60;61.80;;;;;;5065194;28;20040;-67
2023/09/15 10:16:51;;;;;;;1.77;1.17;;;22.80;61.70;;;;;;5063012;28;20143;-66
2023/09/15 10:19:18;;;;;;;1.83;1.48;;;22.90;60.90;;;;;;5064856;28;20549;-67
2023/09/15 10:21:44;;;;;;;1.60;0.98;;;23.20;60.90;;;;;;5066116;28;20024;-66
2023/09/15 10:24:11;;;;;;;1.80;0.63;;;23.30;60.40;;;;;;5066130;28;20083;-67
2023/09/15 10:26:41;;;;;;;1.42;1.00;;;23.50;60.20;;;;;;5063019;28;20033;-67
2023/09/15 10:29:08;;;;;;;0.60;0.60;;;23.60;59.90;;;;;;5060564;28;20024;-67
2023/09/15 10:31:34;;;;;;;1.65;0.98;;;23.70;59.60;;;;;;5061898;28;20029;-67
2023/09/15 10:34:04;;;;;;;1.60;1.13;;;23.80;59.00;;;;;;5064600;28;20047;-67
2023/09/15 10:36:32;;;;;;;2.88;0.63;;;23.80;59.10;;;;;;5064118;28;20455;-67
2023/09/15 10:38:58;;;;;;;1.45;1.20;;;24.00;58.50;;;;;;5062437;28;20379;-67
2023/09/15 10:41:28;;;;;;;1.60;0.95;;;24.00;57.90;;;;;;5062901;28;20098;-67
2023/09/15 10:43:55;;;;;;;3.40;1.20;;;24.10;58.40;;;;;;5056780;28;20170;-68
2023/09/15 10:46:20;;;;;;;1.15;1.05;;;24.30;58.00;;;;;;5065890;28;20079;-67
2023/09/15 10:48:48;;;;;;;1.00;0.82;;;24.50;57.80;;;;;;5067461;28;20044;-67
2023/09/15 10:51:18;;;;;;;3.80;1.25;;;24.60;57.40;;;;;;5067434;28;20449;-67
2023/09/15 10:53:49;;;;;;;1.92;1.30;;;24.70;57.10;;;;;;5047836;28;20063;-66
2023/09/15 10:56:19;;;;;;;1.10;1.00;;;24.90;56.50;;;;;;5065003;28;20029;-66
2023/09/15 10:58:49;;;;;;;3.20;0.93;;;25.00;55.90;;;;;;5062345;28;20475;-67
2023/09/15 11:01:15;;;;;;;2.92;1.48;;;25.00;55.80;;;;;;5051665;28;20450;-67
2023/09/15 11:03:42;;;;;;;2.65;0.98;;;25.20;55.90;;;;;;5060069;28;20110;-67
2023/09/15 11:06:13;;;;;;;2.10;0.85;;;25.40;55.70;;;;;;5065744;28;20490;-67
2023/09/15 11:08:39;;;;;;;2.42;0.70;;;25.40;55.10;;;;;;5065647;28;20458;-67
2023/09/15 11:11:09;;;;;;;1.15;0.80;;;25.50;55.00;;;;;;5056875;28;20025;-67
2023/09/15 11:13:35;;;;;;;1.15;0.77;;;25.60;54.30;;;;;;5061652;28;20031;-67
2023/09/15 11:16:01;;;;;;;2.08;1.00;;;25.60;54.40;;;;;;5062712;28;20021;-67
2023/09/15 11:18:27;;;;;;;2.67;0.90;;;25.70;54.20;;;;;;5065027;28;20067;-67
2023/09/15 11:20:54;;;;;;;1.25;0.85;;;25.80;54.00;;;;;;5065499;28;20109;-67
2023/09/15 11:23:24;;;;;;;0.98;0.80;;;26.00;54.10;;;;;;5066981;28;20041;-67
2023/09/15 11:26:07;;;;;;;0.88;0.77;;;26.20;53.70;;;;;;5064582;28;20047;-67
2023/09/15 11:28:36;;;;;;;1.73;1.23;;;26.40;53.70;;;;;;5065939;28;20040;-68
2023/09/15 11:31:07;;;;;;;1.25;0.82;;;26.40;53.40;;;;;;5068430;28;20102;-67
2023/09/15 11:33:33;;;;;;;1.88;1.13;;;26.40;53.00;;;;;;5066309;28;20165;-67
2023/09/15 11:36:00;;;;;;;2.28;0.95;;;26.50;52.80;;;;;;5049370;28;20032;-67
2023/09/15 11:38:27;;;;;;;0.77;0.70;;;26.50;52.00;;;;;;5067415;28;20060;-67
2023/09/15 11:40:53;;;;;;;1.42;0.80;;;26.60;52.30;;;;;;5050495;28;20033;-68
2023/09/15 11:43:23;;;;;;;0.90;0.70;;;26.70;52.50;;;;;;5068025;28;20035;-67
2023/09/15 11:45:51;;;;;;;2.78;1.13;;;26.90;52.40;;;;;;5070312;28;20040;-68
2023/09/15 11:48:18;;;;;;;1.83;1.02;;;27.00;51.80;;;;;;5069043;28;20024;-67
2023/09/15 11:50:46;;;;;;;1.48;0.90;;;27.20;51.30;;;;;;5065933;28;20025;-67
2023/09/15 11:53:12;;;;;;;0.80;0.77;;;27.10;51.60;;;;;;5067969;28;20031;-68
2023/09/15 11:55:38;;;;;;;0.80;0.80;;;27.10;50.80;;;;;;5065753;28;20016;-67
2023/09/15 11:58:04;;;;;;;0.82;0.80;;;27.10;50.60;;;;;;5068963;28;20475;-66
2023/09/15 12:00:31;;;;;;;0.98;0.80;;;27.10;51.20;;;;;;5063939;28;20086;-67
2023/09/15 12:02:58;;;;;;;1.80;0.85;;;27.30;50.80;;;;;;5063430;28;20479;-67
2023/09/15 12:05:29;;;;;;;2.92;0.80;;;27.40;50.90;;;;;;5060222;28;20075;-67
2023/09/15 12:07:55;;;;;;;1.48;0.70;;;27.60;50.90;;;;;;5062706;28;20040;-67
2023/09/15 12:10:25;;;;;;;1.40;0.90;;;27.80;50.80;;;;;;5061374;28;20021;-67
2023/09/15 12:12:58;;;;;;;2.00;1.23;;;27.90;50.60;;;;;;5058262;28;20040;-67
2023/09/15 12:15:25;;;;;;;1.52;0.85;;;27.90;50.30;;;;;;5049894;28;20054;-67
2023/09/15 12:17:52;;;;;;;1.90;1.23;;;27.90;49.60;;;;;;5064131;28;20042;-67
2023/09/15 12:20:24;;;;;;;0.93;0.93;;;28.00;49.50;;;;;;5033031;28;20041;-67
2023/09/15 12:22:53;;;;;;;3.30;0.90;;;28.00;49.40;;;;;;5054245;28;20033;-67
2023/09/15 12:25:20;;;;;;;1.73;1.05;;;28.00;49.30;;;;;;5062075;28;20098;-67
2023/09/15 12:27:46;;;;;;;1.05;0.93;;;27.90;48.90;;;;;;5068640;28;20032;-69
2023/09/15 12:30:13;;;;;;;1.15;0.73;;;27.90;49.20;;;;;;5041815;28;20035;-67
2023/09/15 12:32:39;;;;;;;0.98;0.90;;;27.90;49.20;;;;;;5061937;28;20119;-68
2023/09/15 12:35:09;;;;;;;1.05;0.52;;;28.00;49.20;;;;;;5060179;28;20147;-67
2023/09/15 12:37:44;;;;;;;5.97;0.95;;;28.20;49.30;;;;;;5057080;28;20079;-66
2023/09/15 12:40:11;;;;;;;1.50;1.40;;;28.30;48.50;;;;;;5062132;28;20468;-67
2023/09/15 12:42:37;;;;;;;1.30;0.85;;;28.30;46.60;;;;;;5040365;28;20031;-67
2023/09/15 12:45:04;;;;;;;1.05;0.95;;;28.10;47.70;;;;;;5066866;28;20447;-66
2023/09/15 12:47:30;;;;;;;2.00;0.70;;;28.10;48.70;;;;;;5060600;28;20060;-67